Time;durP1;ratioP1;P1;durP2;ratioP2;P2;SDS_P1;SDS_P2;PMS_P1;PMS_P2;Temp;Humidity;BMP_temperature;BMP_pressure;BME280_temperature;BME280_humidity;BME280_pressure;Samples;Min_cycle;Max_cycle;Signal;HPM_P1;HPM_P2
2022/06/10 00:01:24;;;;;;;6.53;5.37;;;13.20;99.90;;;;;;5072257;28;20481;-76
2022/06/10 00:04:17;;;;;;;6.33;5.10;;;13.20;99.90;;;;;;5073026;28;20476;-76
2022/06/10 00:07:34;;;;;;;5.93;5.33;;;13.20;99.90;;;;;;5066945;28;20561;-76
2022/06/10 00:10:26;;;;;;;5.70;5.07;;;13.10;99.90;;;;;;5070900;28;21114;-76
2022/06/10 00:13:14;;;;;;;7.83;5.70;;;13.00;99.90;;;;;;5073282;28;20441;-80
2022/06/10 00:16:06;;;;;;;7.30;5.33;;;13.10;99.90;;;;;;5066041;28;20647;-76
2022/06/10 00:18:56;;;;;;;6.30;5.17;;;13.10;99.90;;;;;;5069996;28;20484;-78
2022/06/10 00:21:51;;;;;;;6.20;5.60;;;13.10;99.90;;;;;;5067808;28;21016;-82
2022/06/10 00:24:51;;;;;;;7.40;6.70;;;13.10;99.90;;;;;;5064217;28;20496;-78
2022/06/10 00:27:52;;;;;;;6.30;5.70;;;13.10;99.90;;;;;;5067809;28;20507;-75
2022/06/10 00:30:41;;;;;;;9.93;6.37;;;13.10;99.90;;;;;;5068794;28;20571;-78
2022/06/10 00:33:34;;;;;;;6.70;6.00;;;13.10;99.90;;;;;;5074232;28;20496;-77
2022/06/10 00:36:23;;;;;;;6.60;5.90;;;13.00;99.90;;;;;;5071675;28;21123;-77
2022/06/10 00:39:24;;;;;;;6.30;5.67;;;13.00;99.90;;;;;;5074442;28;20891;-78
2022/06/10 00:42:17;;;;;;;6.77;6.10;;;13.00;99.90;;;;;;5070945;28;20564;-77
2022/06/10 00:45:26;;;;;;;10.37;6.50;;;13.00;99.90;;;;;;5072255;28;20550;-81
2022/06/10 00:48:39;;;;;;;9.10;6.17;;;12.90;99.90;;;;;;5074939;28;21047;-76
2022/06/10 00:51:41;;;;;;;10.80;6.60;;;12.90;99.90;;;;;;5071640;28;20525;-76
2022/06/10 00:54:45;;;;;;;7.53;6.13;;;12.90;99.90;;;;;;5058002;28;20580;-79
2022/06/10 00:57:40;;;;;;;6.47;5.77;;;12.90;99.90;;;;;;5067593;28;20576;-76
2022/06/10 01:00:30;;;;;;;8.33;6.47;;;12.90;99.90;;;;;;5067044;28;20498;-76
2022/06/10 01:03:48;;;;;;;9.30;6.40;;;12.80;99.90;;;;;;5074501;28;20442;-77
2022/06/10 01:07:05;;;;;;;9.47;6.70;;;12.80;99.90;;;;;;5070001;28;20453;-76
2022/06/10 01:10:07;;;;;;;7.00;6.40;;;12.80;99.90;;;;;;5065377;28;20814;-76
2022/06/10 01:13:35;;;;;;;7.40;6.70;;;12.70;99.90;;;;;;5066303;28;21535;-77
2022/06/10 01:16:34;;;;;;;6.57;6.00;;;12.70;99.90;;;;;;5069329;28;20531;-77
2022/06/10 01:19:49;;;;;;;7.30;6.60;;;12.60;99.90;;;;;;5069018;28;20515;-77
2022/06/10 01:23:14;;;;;;;7.43;6.27;;;12.60;99.90;;;;;;5068819;28;20536;-76
2022/06/10 01:31:08;;;;;;;6.73;6.13;;;12.60;99.90;;;;;;5060863;28;20494;-78
2022/06/10 01:34:29;;;;;;;7.67;6.20;;;12.50;99.90;;;;;;5070609;28;20545;-76
2022/06/10 01:37:34;;;;;;;6.70;5.70;;;12.50;99.90;;;;;;5067374;28;20964;-75
2022/06/10 01:40:35;;;;;;;9.37;6.60;;;12.50;99.90;;;;;;5067030;28;20552;-77
2022/06/10 01:43:40;;;;;;;9.20;6.00;;;12.40;99.90;;;;;;5060191;28;20543;-76
2022/06/10 01:46:44;;;;;;;9.10;6.43;;;12.40;99.90;;;;;;5064906;28;20453;-76
2022/06/10 01:49:44;;;;;;;7.10;6.40;;;12.30;99.90;;;;;;5068173;28;20840;-76
2022/06/10 01:53:00;;;;;;;6.80;6.20;;;12.30;99.90;;;;;;5065432;28;20600;-76
2022/06/10 01:55:55;;;;;;;7.27;6.57;;;12.40;99.90;;;;;;5072784;28;21332;-75
2022/06/10 01:59:05;;;;;;;7.30;6.17;;;12.30;99.90;;;;;;5065079;28;20485;-76
2022/06/10 02:02:13;;;;;;;6.37;5.77;;;12.30;99.90;;;;;;5061717;28;21418;-80
2022/06/10 02:05:13;;;;;;;6.53;5.90;;;12.30;99.90;;;;;;5068846;28;20469;-78
2022/06/10 02:08:18;;;;;;;8.03;6.00;;;12.30;99.90;;;;;;5071441;28;20845;-77
2022/06/10 02:11:18;;;;;;;9.93;6.53;;;12.20;99.90;;;;;;5065422;28;20588;-78
2022/06/10 02:14:13;;;;;;;7.80;7.00;;;12.30;99.90;;;;;;5068742;28;20473;-76
2022/06/10 02:17:04;;;;;;;7.67;6.73;;;12.20;99.90;;;;;;5072593;28;20512;-76
2022/06/10 02:20:01;;;;;;;8.50;6.90;;;12.20;99.90;;;;;;5085284;28;20479;-77
2022/06/10 02:22:56;;;;;;;7.27;6.40;;;12.20;99.90;;;;;;5075087;28;20476;-76
2022/06/10 02:25:48;;;;;;;7.87;6.13;;;12.20;99.90;;;;;;5078805;28;20457;-76
2022/06/10 02:28:42;;;;;;;7.27;6.33;;;12.10;99.90;;;;;;5076490;28;21047;-76
2022/06/10 02:31:41;;;;;;;7.57;6.80;;;12.10;99.90;;;;;;5074046;28;21003;-76
2022/06/10 02:34:48;;;;;;;7.90;6.40;;;12.10;99.90;;;;;;5077456;28;20616;-78
2022/06/10 02:37:46;;;;;;;8.77;6.00;;;12.00;99.90;;;;;;5077161;28;20472;-78
2022/06/10 02:44:05;;;;;;;7.40;6.40;;;12.00;99.90;;;;;;5073551;28;20563;-77
2022/06/10 02:47:25;;;;;;;9.50;6.67;;;12.00;99.90;;;;;;5058820;28;20946;-76
2022/06/10 02:50:21;;;;;;;6.40;5.87;;;12.00;99.90;;;;;;5075880;28;20472;-77
2022/06/10 02:53:12;;;;;;;8.10;5.80;;;12.00;99.90;;;;;;5072679;28;20954;-77
2022/06/10 02:56:15;;;;;;;8.73;6.73;;;11.90;99.90;;;;;;5076814;28;20460;-76
2022/06/10 03:02:31;;;;;;;7.90;6.43;;;12.00;99.90;;;;;;5076556;28;20900;-76
2022/06/10 03:05:34;;;;;;;9.77;6.83;;;12.00;99.90;;;;;;5078136;28;20522;-77
2022/06/10 03:08:34;;;;;;;8.73;6.40;;;12.00;99.90;;;;;;5074552;28;20473;-77
2022/06/10 03:11:36;;;;;;;8.40;7.00;;;11.90;99.90;;;;;;5076451;28;21004;-77
2022/06/10 03:14:41;;;;;;;10.80;6.73;;;11.90;99.90;;;;;;5073998;28;21139;-77
2022/06/10 03:17:40;;;;;;;9.00;6.90;;;11.90;99.90;;;;;;5069054;28;20571;-77
2022/06/10 03:20:40;;;;;;;7.60;6.90;;;11.90;99.90;;;;;;5071243;28;21165;-78
2022/06/10 03:23:50;;;;;;;7.23;6.40;;;11.90;99.90;;;;;;5077628;28;20473;-77
2022/06/10 03:26:51;;;;;;;7.90;7.20;;;11.80;99.90;;;;;;5075822;28;21011;-78
2022/06/10 03:29:50;;;;;;;8.50;7.40;;;11.90;99.90;;;;;;5066085;28;20599;-77
2022/06/10 03:32:48;;;;;;;7.50;6.80;;;11.80;99.90;;;;;;5074608;28;20992;-78
2022/06/10 03:35:45;;;;;;;7.70;7.00;;;11.80;99.90;;;;;;5070075;28;20457;-77
2022/06/10 03:38:49;;;;;;;7.73;6.90;;;11.80;99.90;;;;;;5074402;28;20564;-76
2022/06/10 03:42:05;;;;;;;9.30;7.20;;;11.90;99.90;;;;;;5078132;28;20545;-77
2022/06/10 03:44:56;;;;;;;8.50;7.50;;;11.90;99.90;;;;;;5069361;28;21029;-77
2022/06/10 03:47:44;;;;;;;8.03;7.23;;;12.00;99.90;;;;;;5076033;28;20477;-79
2022/06/10 03:50:46;;;;;;;7.87;6.87;;;12.00;99.90;;;;;;5074184;28;20457;-78
2022/06/10 03:54:00;;;;;;;9.60;7.77;;;12.00;99.90;;;;;;5078123;28;20563;-77
2022/06/10 03:57:09;;;;;;;12.60;7.43;;;12.10;99.90;;;;;;5072197;28;20481;-76
2022/06/10 04:00:08;;;;;;;9.03;7.47;;;12.10;99.90;;;;;;5066721;28;20886;-76
2022/06/10 04:03:07;;;;;;;8.17;7.37;;;12.10;99.90;;;;;;5075969;28;20580;-77
2022/06/10 04:06:02;;;;;;;9.40;8.40;;;12.20;99.90;;;;;;5076070;28;20574;-77
2022/06/10 04:09:14;;;;;;;8.20;7.40;;;12.30;99.90;;;;;;5067442;28;20826;-77
2022/06/10 04:12:03;;;;;;;9.17;7.80;;;12.30;99.90;;;;;;5078239;28;20563;-76
2022/06/10 04:14:55;;;;;;;8.30;6.70;;;12.30;99.90;;;;;;5072655;28;21006;-77
2022/06/10 04:17:52;;;;;;;10.80;8.17;;;12.30;99.90;;;;;;5074420;28;20478;-76
2022/06/10 04:20:59;;;;;;;8.93;8.03;;;12.50;99.90;;;;;;5075451;28;20862;-76
2022/06/10 04:23:52;;;;;;;11.90;8.80;;;12.60;99.90;;;;;;5071201;28;20468;-77
2022/06/10 04:26:51;;;;;;;11.10;8.50;;;12.70;99.90;;;;;;5077192;28;20589;-77
2022/06/10 04:29:52;;;;;;;11.57;8.87;;;12.80;99.90;;;;;;5069217;28;20477;-76
2022/06/10 04:32:55;;;;;;;10.90;8.87;;;12.90;99.90;;;;;;5061228;28;20484;-76
2022/06/10 04:35:50;;;;;;;9.93;7.93;;;12.90;99.90;;;;;;5071392;28;20461;-79
2022/06/10 04:38:39;;;;;;;10.47;8.47;;;13.00;99.90;;;;;;5072315;28;20901;-76
2022/06/10 04:45:06;;;;;;;9.20;8.30;;;13.10;99.90;;;;;;5067995;28;20997;-76
2022/06/10 04:48:04;;;;;;;9.77;8.57;;;13.20;99.90;;;;;;5070679;28;20476;-77
2022/06/10 04:50:56;;;;;;;11.10;9.27;;;13.30;99.90;;;;;;5051246;28;20457;-76
2022/06/10 04:53:44;;;;;;;11.50;8.70;;;13.40;99.90;;;;;;5067401;28;20603;-80
2022/06/10 04:56:41;;;;;;;8.77;7.87;;;13.40;99.90;;;;;;5083762;28;20533;-78
2022/06/10 04:59:32;;;;;;;10.73;8.50;;;13.50;99.90;;;;;;5094511;28;20497;-78
2022/06/10 05:02:34;;;;;;;10.50;7.87;;;13.60;99.90;;;;;;5068060;28;20504;-78
2022/06/10 05:05:30;;;;;;;10.33;8.30;;;13.70;99.90;;;;;;5069951;28;20639;-80
2022/06/10 05:08:46;;;;;;;8.80;7.90;;;13.80;99.90;;;;;;5068624;28;20830;-76
2022/06/10 05:11:38;;;;;;;8.00;7.23;;;13.80;99.90;;;;;;5069617;28;20502;-77
2022/06/10 05:14:46;;;;;;;11.67;7.83;;;13.90;99.90;;;;;;5065018;28;20588;-79
2022/06/10 05:17:42;;;;;;;8.30;6.70;;;14.00;99.90;;;;;;5063927;28;20505;-77
2022/06/10 05:20:41;;;;;;;9.53;5.63;;;14.00;99.90;;;;;;5054362;28;20487;-77
2022/06/10 05:23:38;;;;;;;7.73;6.43;;;14.00;99.90;;;;;;5067511;28;20472;-78
2022/06/10 05:26:43;;;;;;;9.23;5.93;;;14.10;99.90;;;;;;5068088;28;20450;-79
2022/06/10 05:30:09;;;;;;;8.40;5.73;;;14.20;99.90;;;;;;5083251;28;20472;-77
2022/06/10 05:33:03;;;;;;;9.43;6.10;;;14.20;99.90;;;;;;5091846;27;21057;-78
2022/06/10 05:35:56;;;;;;;8.70;5.20;;;14.30;99.90;;;;;;5089591;27;20472;-77
2022/06/10 05:42:06;;;;;;;5.90;5.30;;;14.50;99.90;;;;;;5089794;28;20828;-77
2022/06/10 05:44:54;;;;;;;6.17;5.23;;;14.50;99.90;;;;;;5093131;28;22086;-77
2022/06/10 05:47:53;;;;;;;6.13;3.90;;;14.60;99.90;;;;;;5095880;28;20620;-79
2022/06/10 05:50:45;;;;;;;5.30;3.90;;;14.60;99.90;;;;;;5092544;28;20452;-78
2022/06/10 05:53:44;;;;;;;8.43;3.97;;;14.70;99.90;;;;;;5096375;28;20509;-79
2022/06/10 05:56:32;;;;;;;3.30;3.00;;;14.70;99.90;;;;;;5095052;28;20455;-76
2022/06/10 05:59:22;;;;;;;6.47;3.50;;;14.80;99.90;;;;;;5069352;28;20472;-77
2022/06/10 06:02:15;;;;;;;6.87;3.80;;;14.80;99.90;;;;;;5067739;28;20436;-77
2022/06/10 06:05:07;;;;;;;6.37;3.37;;;14.90;99.90;;;;;;5058256;28;21743;-80
2022/06/10 06:08:07;;;;;;;6.93;3.53;;;15.00;99.90;;;;;;5064705;28;21082;-77
2022/06/10 06:11:04;;;;;;;6.50;3.20;;;15.00;99.90;;;;;;5073823;28;20491;-77
2022/06/10 06:13:52;;;;;;;5.77;3.50;;;15.10;99.90;;;;;;5077568;28;20488;-77
2022/06/10 06:16:43;;;;;;;4.30;3.07;;;15.10;99.90;;;;;;5069810;28;21041;-77
2022/06/10 06:19:34;;;;;;;3.93;3.17;;;15.20;99.90;;;;;;5089116;28;20548;-77
2022/06/10 06:22:22;;;;;;;4.43;3.10;;;15.30;99.90;;;;;;5093680;28;20512;-77
2022/06/10 06:25:15;;;;;;;5.10;2.50;;;15.40;99.90;;;;;;5089297;28;20890;-79
2022/06/10 06:28:04;;;;;;;5.87;3.03;;;15.40;99.90;;;;;;5088158;28;20487;-76
2022/06/10 06:30:53;;;;;;;5.03;2.57;;;15.50;99.90;;;;;;5093514;28;20511;-77
2022/06/10 06:33:42;;;;;;;3.43;2.73;;;15.50;99.90;;;;;;5094544;28;23710;-77
2022/06/10 06:36:36;;;;;;;4.70;2.60;;;15.70;99.90;;;;;;5090148;28;20882;-77
2022/06/10 06:39:26;;;;;;;4.43;2.93;;;15.70;99.90;;;;;;5090841;28;20620;-77
2022/06/10 06:42:16;;;;;;;7.03;3.00;;;15.80;99.90;;;;;;5091513;28;20459;-76
2022/06/10 06:45:06;;;;;;;3.80;2.50;;;15.90;99.90;;;;;;5092103;28;20479;-79
2022/06/10 06:48:14;;;;;;;4.40;2.73;;;16.00;99.90;;;;;;5091505;28;20484;-80
2022/06/10 06:51:03;;;;;;;5.50;2.63;;;16.00;99.90;;;;;;5095403;28;20492;-77
2022/06/10 06:53:51;;;;;;;5.90;2.80;;;16.10;99.90;;;;;;5094674;28;20975;-77
2022/06/10 06:56:40;;;;;;;3.07;2.67;;;16.20;99.90;;;;;;5086416;28;20477;-77
2022/06/10 06:59:30;;;;;;;4.83;2.63;;;16.30;99.90;;;;;;5071136;28;20649;-77
2022/06/10 07:02:20;;;;;;;4.90;2.60;;;16.30;99.90;;;;;;5071320;28;20461;-77
2022/06/10 07:05:10;;;;;;;5.73;2.93;;;16.40;99.90;;;;;;5070719;28;20472;-77
2022/06/10 07:07:59;;;;;;;4.57;2.30;;;16.50;99.90;;;;;;5065884;28;20525;-76
2022/06/10 07:10:48;;;;;;;4.40;2.30;;;16.60;99.90;;;;;;5075335;28;20485;-77
2022/06/10 07:13:37;;;;;;;2.50;2.30;;;16.60;99.90;;;;;;5075318;28;21198;-77
2022/06/10 07:16:33;;;;;;;4.80;2.10;;;16.70;99.90;;;;;;5078494;28;20547;-78
2022/06/10 07:19:23;;;;;;;3.17;2.10;;;16.80;99.90;;;;;;5077931;28;20476;-78
2022/06/10 07:22:11;;;;;;;4.23;2.47;;;16.80;99.90;;;;;;5078239;28;20622;-77
2022/06/10 07:25:00;;;;;;;4.67;2.60;;;16.90;99.90;;;;;;5077861;28;20556;-77
2022/06/10 07:27:52;;;;;;;4.40;2.60;;;17.00;99.90;;;;;;5079871;28;20464;-77
2022/06/10 07:30:42;;;;;;;4.97;2.97;;;17.00;99.90;;;;;;5070839;28;20499;-77
2022/06/10 07:33:34;;;;;;;2.50;2.20;;;17.10;99.90;;;;;;5079943;28;20535;-77
2022/06/10 07:36:22;;;;;;;3.93;2.63;;;17.10;99.90;;;;;;5085788;28;20477;-78
2022/06/10 07:39:10;;;;;;;4.10;2.60;;;17.20;99.90;;;;;;5077017;28;20534;-80
2022/06/10 07:42:00;;;;;;;7.77;3.43;;;17.20;99.90;;;;;;5077613;28;20673;-78
2022/06/10 07:44:48;;;;;;;6.00;2.90;;;17.30;99.90;;;;;;5075377;28;20472;-77
2022/06/10 07:47:37;;;;;;;4.57;2.50;;;17.30;99.90;;;;;;5074300;28;20473;-77
2022/06/10 07:50:26;;;;;;;2.63;2.43;;;17.40;99.90;;;;;;5075762;28;20476;-77
2022/06/10 07:53:18;;;;;;;3.23;2.40;;;17.40;99.90;;;;;;5073116;28;20510;-77
2022/06/10 07:56:07;;;;;;;5.33;2.70;;;17.50;99.90;;;;;;5074476;28;20473;-78
2022/06/10 07:58:58;;;;;;;6.43;2.90;;;17.60;99.90;;;;;;5072182;28;20469;-77
2022/06/10 08:01:47;;;;;;;3.73;2.40;;;17.70;99.90;;;;;;5077181;28;20549;-78
2022/06/10 08:04:35;;;;;;;6.50;2.47;;;17.70;99.90;;;;;;5074479;28;20477;-77
2022/06/10 08:07:27;;;;;;;4.83;2.47;;;17.80;99.90;;;;;;5073967;28;20481;-77
2022/06/10 08:10:19;;;;;;;3.00;2.20;;;17.90;99.90;;;;;;5074893;28;20457;-77
2022/06/10 08:13:08;;;;;;;4.03;2.43;;;17.90;99.90;;;;;;5072518;28;20460;-77
2022/06/10 08:15:58;;;;;;;4.13;2.30;;;18.00;99.90;;;;;;5069408;28;20957;-77
2022/06/10 08:18:47;;;;;;;3.47;2.27;;;18.10;99.90;;;;;;5068747;28;20581;-77
2022/06/10 08:24:44;;;;;;;4.57;2.80;;;18.20;99.90;;;;;;5073614;28;21086;-81
2022/06/10 08:27:33;;;;;;;2.70;2.30;;;18.30;99.90;;;;;;5071048;28;20511;-79
2022/06/10 08:30:21;;;;;;;4.87;2.03;;;18.40;99.90;;;;;;5067009;28;20502;-82
2022/06/10 08:33:10;;;;;;;3.23;2.23;;;18.40;99.90;;;;;;5065882;28;20488;-79
2022/06/10 08:36:00;;;;;;;6.97;2.13;;;18.50;99.90;;;;;;5073351;28;20771;-79
2022/06/10 08:38:49;;;;;;;4.00;2.33;;;18.60;99.90;;;;;;5068835;28;20585;-81
2022/06/10 08:41:55;;;;;;;3.77;2.00;;;18.70;99.90;;;;;;5068562;28;20456;-79
2022/06/10 08:44:51;;;;;;;7.30;2.40;;;18.70;99.90;;;;;;5067977;28;20557;-79
2022/06/10 08:48:00;;;;;;;4.93;2.73;;;18.80;99.90;;;;;;5073129;28;20485;-79
2022/06/10 08:51:06;;;;;;;2.40;2.20;;;18.90;99.90;;;;;;5068722;28;20448;-78
2022/06/10 08:54:13;;;;;;;6.20;2.63;;;19.00;99.90;;;;;;5070014;28;21003;-78
2022/06/10 08:57:08;;;;;;;4.53;3.03;;;19.10;99.90;;;;;;5075393;28;20513;-78
2022/06/10 08:59:58;;;;;;;4.13;2.50;;;19.20;99.90;;;;;;5068107;28;20553;-80
2022/06/10 09:02:54;;;;;;;4.80;2.93;;;19.20;99.90;;;;;;5073458;28;20465;-78
2022/06/10 09:05:47;;;;;;;6.50;3.40;;;19.30;99.90;;;;;;5075104;28;21030;-78
2022/06/10 09:08:39;;;;;;;5.40;3.50;;;19.40;99.90;;;;;;5071895;28;20622;-80
2022/06/10 09:11:33;;;;;;;5.07;3.37;;;19.50;99.90;;;;;;5073047;28;20501;-78
2022/06/10 09:14:24;;;;;;;5.93;3.20;;;19.60;99.90;;;;;;5073044;28;20893;-79
2022/06/10 09:17:21;;;;;;;4.70;3.03;;;19.70;99.90;;;;;;5073401;28;20529;-78
2022/06/10 09:20:17;;;;;;;5.03;3.97;;;19.70;99.90;;;;;;5071574;28;20487;-78
2022/06/10 09:23:12;;;;;;;5.17;3.60;;;19.90;99.90;;;;;;5064347;28;20543;-78
2022/06/10 09:26:09;;;;;;;6.43;3.60;;;19.90;99.90;;;;;;5074328;28;20560;-78
2022/06/10 09:28:58;;;;;;;5.43;3.50;;;20.00;99.90;;;;;;5063105;28;21067;-79
2022/06/10 09:31:58;;;;;;;4.30;3.43;;;20.10;99.90;;;;;;5071474;28;20488;-78
2022/06/10 09:34:56;;;;;;;4.80;3.10;;;20.20;99.90;;;;;;5072183;28;20484;-78
2022/06/10 09:37:54;;;;;;;4.47;3.80;;;20.30;99.90;;;;;;5073242;28;20477;-79
2022/06/10 09:40:59;;;;;;;5.80;3.53;;;20.40;99.90;;;;;;5068736;28;20888;-78
2022/06/10 09:43:56;;;;;;;5.70;3.87;;;20.40;99.90;;;;;;5071948;28;21018;-78
2022/06/10 09:46:58;;;;;;;4.00;3.70;;;20.40;99.90;;;;;;5071823;28;20457;-79
2022/06/10 09:50:01;;;;;;;5.73;4.03;;;20.40;99.90;;;;;;5071370;28;20536;-78
2022/06/10 09:53:07;;;;;;;3.50;3.10;;;20.40;99.90;;;;;;5073625;28;20448;-78
2022/06/10 09:56:16;;;;;;;3.73;3.33;;;20.40;99.90;;;;;;5073623;28;20532;-78
2022/06/10 09:59:18;;;;;;;6.70;3.30;;;20.50;99.90;;;;;;5068547;28;20718;-78
2022/06/10 10:02:23;;;;;;;5.23;3.67;;;20.60;99.90;;;;;;5073039;28;20448;-78
2022/06/10 10:05:35;;;;;;;5.40;3.50;;;20.70;99.90;;;;;;5071803;28;20563;-80
2022/06/10 10:08:30;;;;;;;4.40;3.47;;;20.70;99.90;;;;;;5069979;28;20976;-79
2022/06/10 10:11:25;;;;;;;5.83;3.40;;;20.70;99.90;;;;;;5071633;28;20449;-78
2022/06/10 10:14:23;;;;;;;5.40;3.30;;;20.70;99.90;;;;;;5074947;28;20480;-78
2022/06/10 10:17:35;;;;;;;5.50;3.47;;;20.80;99.90;;;;;;5071807;28;20558;-77
2022/06/10 10:20:31;;;;;;;3.73;3.43;;;20.90;99.90;;;;;;5082283;28;20469;-78
2022/06/10 10:23:24;;;;;;;4.63;3.20;;;20.90;99.90;;;;;;5073377;28;20666;-78
2022/06/10 10:26:21;;;;;;;4.43;3.80;;;21.00;99.90;;;;;;5071034;28;20560;-79
2022/06/10 10:29:17;;;;;;;5.50;3.83;;;21.10;99.90;;;;;;5089654;28;20521;-78
2022/06/10 10:32:11;;;;;;;5.00;3.60;;;21.20;99.90;;;;;;5092608;28;20469;-78
2022/06/10 10:35:19;;;;;;;4.77;3.57;;;21.30;99.90;;;;;;5088457;28;20615;-78
2022/06/10 10:38:11;;;;;;;5.10;3.80;;;21.40;99.90;;;;;;5083060;28;20562;-78
2022/06/10 10:40:59;;;;;;;4.80;4.10;;;21.50;99.90;;;;;;5089039;28;20552;-78
2022/06/10 10:43:51;;;;;;;7.27;3.73;;;21.50;99.90;;;;;;5090314;28;20822;-78
2022/06/10 10:46:42;;;;;;;4.80;3.40;;;21.60;99.90;;;;;;5097093;28;20530;-77
2022/06/10 10:49:34;;;;;;;3.73;3.30;;;21.60;99.90;;;;;;5094231;27;20946;-78
2022/06/10 10:52:28;;;;;;;4.70;3.13;;;21.60;99.90;;;;;;5092922;28;20853;-77
2022/06/10 10:55:26;;;;;;;5.40;3.23;;;21.70;99.90;;;;;;5096434;28;20583;-78
2022/06/10 10:58:18;;;;;;;4.53;3.40;;;21.70;99.90;;;;;;5097009;28;20597;-77
2022/06/10 11:01:09;;;;;;;6.47;3.80;;;21.60;99.90;;;;;;5092161;27;20847;-77
2022/06/10 11:03:57;;;;;;;3.60;2.83;;;21.70;99.90;;;;;;5096915;28;21046;-77
2022/06/10 11:06:47;;;;;;;5.50;3.10;;;21.70;99.90;;;;;;5097004;27;20562;-77
2022/06/10 11:10:08;;;;;;;3.27;2.97;;;21.70;99.90;;;;;;5095534;28;20448;-79
2022/06/10 11:13:02;;;;;;;3.30;2.97;;;21.70;99.90;;;;;;5095677;28;20466;-78
2022/06/10 11:16:12;;;;;;;2.83;2.60;;;21.70;99.90;;;;;;5091884;27;20625;-77
2022/06/10 11:19:09;;;;;;;3.37;3.07;;;21.70;99.90;;;;;;5096956;28;20604;-78
2022/06/10 11:22:11;;;;;;;5.33;3.80;;;21.80;99.90;;;;;;5093737;28;20807;-77
2022/06/10 11:25:22;;;;;;;3.63;2.90;;;21.70;99.90;;;;;;5094157;28;20655;-78
2022/06/10 11:28:27;;;;;;;5.10;3.77;;;21.70;99.90;;;;;;5090631;27;20499;-79
2022/06/10 11:31:20;;;;;;;4.33;3.17;;;21.80;99.90;;;;;;5094708;28;20534;-77
2022/06/10 11:34:17;;;;;;;4.03;2.90;;;21.90;99.90;;;;;;5096818;28;20472;-80
2022/06/10 11:37:24;;;;;;;4.40;3.87;;;22.00;99.90;;;;;;5091902;28;20613;-78
2022/06/10 11:40:18;;;;;;;5.10;3.93;;;22.10;99.90;;;;;;5093998;27;20463;-77
2022/06/10 11:43:16;;;;;;;4.53;3.50;;;22.30;99.90;;;;;;5091038;27;20612;-78
2022/06/10 11:46:12;;;;;;;2.90;2.60;;;22.40;99.90;;;;;;5088335;27;20840;-77
2022/06/10 11:49:06;;;;;;;3.87;3.50;;;22.50;99.90;;;;;;5090707;28;20473;-76
2022/06/10 11:51:59;;;;;;;3.20;2.90;;;22.60;99.90;;;;;;5081718;28;20452;-77
2022/06/10 11:54:53;;;;;;;5.17;3.07;;;22.70;99.90;;;;;;5095874;28;20469;-78
2022/06/10 12:01:08;;;;;;;3.30;2.37;;;22.80;99.90;;;;;;5051429;28;20973;-77
2022/06/10 12:04:02;;;;;;;4.10;3.00;;;22.90;99.90;;;;;;5091958;28;20492;-78
2022/06/10 12:06:57;;;;;;;3.90;3.07;;;23.10;99.90;;;;;;5079335;28;20900;-78
2022/06/10 12:09:49;;;;;;;4.70;3.03;;;23.40;99.90;;;;;;5089490;27;20460;-77
2022/06/10 12:12:42;;;;;;;3.90;3.03;;;23.50;99.90;;;;;;5089341;27;20460;-78
2022/06/10 12:15:34;;;;;;;2.80;2.53;;;23.60;99.90;;;;;;5082636;27;20466;-77
2022/06/10 12:18:32;;;;;;;3.57;2.80;;;23.60;99.90;;;;;;5085279;27;20477;-78
2022/06/10 12:21:25;;;;;;;4.00;2.93;;;23.70;99.90;;;;;;5089846;27;20456;-78
2022/06/10 12:24:16;;;;;;;3.73;2.77;;;23.70;99.90;;;;;;5088593;28;20534;-79
2022/06/10 12:27:12;;;;;;;3.67;3.00;;;23.70;99.90;;;;;;5087198;28;20475;-81
2022/06/10 12:30:14;;;;;;;3.77;3.30;;;23.80;99.90;;;;;;5082567;27;20464;-79
2022/06/10 12:33:09;;;;;;;3.23;2.93;;;23.90;99.90;;;;;;5070727;28;20480;-78
2022/06/10 12:35:58;;;;;;;3.77;3.30;;;24.00;99.90;;;;;;5090888;27;20484;-78
2022/06/10 12:38:49;;;;;;;3.80;3.37;;;24.10;99.90;;;;;;5089973;28;20538;-79
2022/06/10 12:41:42;;;;;;;5.10;4.00;;;24.20;99.90;;;;;;5092161;28;20456;-81
2022/06/10 12:44:37;;;;;;;4.87;3.67;;;24.10;99.90;;;;;;5091874;28;20573;-79
2022/06/10 12:47:34;;;;;;;5.80;4.03;;;24.00;99.90;;;;;;5092199;27;20506;-78
2022/06/10 12:50:27;;;;;;;4.10;3.80;;;24.00;99.90;;;;;;5091005;28;20599;-79
2022/06/10 12:53:41;;;;;;;3.40;3.10;;;23.90;99.90;;;;;;5094911;28;20451;-78
2022/06/10 12:56:32;;;;;;;4.37;4.07;;;23.90;99.90;;;;;;5082534;27;20786;-80
2022/06/10 12:59:24;;;;;;;4.77;4.37;;;24.00;99.90;;;;;;5074181;28;20914;-79
2022/06/10 13:02:36;;;;;;;4.97;3.73;;;24.00;99.90;;;;;;5084331;28;20457;-78
2022/06/10 13:05:27;;;;;;;4.30;3.83;;;24.00;99.90;;;;;;5080169;28;20468;-79
2022/06/10 13:08:39;;;;;;;4.73;4.00;;;24.00;99.90;;;;;;5071635;28;20480;-81
2022/06/10 13:11:34;;;;;;;4.53;3.90;;;24.00;99.90;;;;;;5070529;28;20456;-79
2022/06/10 13:14:47;;;;;;;5.07;4.00;;;24.00;99.90;;;;;;5069667;28;20554;-79
2022/06/10 13:17:53;;;;;;;3.63;3.33;;;23.90;99.90;;;;;;5065160;28;20547;-80
2022/06/10 13:20:41;;;;;;;3.03;2.73;;;23.80;99.90;;;;;;5073299;28;20586;-78
2022/06/10 13:23:29;;;;;;;3.47;2.43;;;23.80;99.90;;;;;;5074665;28;20520;-80
2022/06/10 13:26:19;;;;;;;2.93;2.37;;;23.80;99.90;;;;;;5064040;28;20548;-79
2022/06/10 13:29:13;;;;;;;2.57;2.37;;;23.80;99.90;;;;;;5070585;28;20481;-78
2022/06/10 13:32:11;;;;;;;4.93;2.93;;;23.80;99.90;;;;;;5071121;28;20480;-80
2022/06/10 13:35:04;;;;;;;4.10;2.77;;;23.70;99.90;;;;;;5075154;28;20493;-81
2022/06/10 13:37:58;;;;;;;4.53;2.70;;;23.70;99.90;;;;;;5075907;28;20580;-81
2022/06/10 13:40:49;;;;;;;2.83;2.50;;;23.60;99.90;;;;;;5073401;28;20571;-80
2022/06/10 13:43:38;;;;;;;4.13;2.70;;;23.50;99.90;;;;;;5070697;28;21038;-79
2022/06/10 13:46:30;;;;;;;6.27;2.50;;;23.40;99.90;;;;;;5070233;28;21045;-80
2022/06/10 13:49:42;;;;;;;4.43;3.17;;;23.40;99.90;;;;;;5073358;28;20848;-79
2022/06/10 13:52:33;;;;;;;2.67;2.47;;;23.30;99.90;;;;;;5069130;28;20446;-78
2022/06/10 13:55:27;;;;;;;3.77;2.63;;;23.10;99.90;;;;;;5061558;28;20467;-78
2022/06/10 13:58:20;;;;;;;5.20;2.77;;;23.00;99.90;;;;;;5067920;28;20618;-78
2022/06/10 14:01:17;;;;;;;3.17;2.60;;;22.80;99.90;;;;;;5072729;28;20490;-78
2022/06/10 14:04:10;;;;;;;4.10;2.00;;;22.70;99.90;;;;;;5071730;28;20473;-78
2022/06/10 14:07:02;;;;;;;4.07;2.50;;;22.70;99.90;;;;;;5063557;28;20444;-79
2022/06/10 14:09:52;;;;;;;2.00;1.70;;;22.60;99.90;;;;;;5068241;28;20535;-79
2022/06/10 14:12:41;;;;;;;2.40;1.90;;;22.50;99.90;;;;;;5070581;28;20584;-79
2022/06/10 14:15:31;;;;;;;1.70;1.60;;;22.50;99.90;;;;;;5072255;28;20498;-79
2022/06/10 14:18:23;;;;;;;3.10;2.00;;;22.40;99.90;;;;;;5063424;28;20508;-79
2022/06/10 14:21:15;;;;;;;3.90;2.00;;;22.40;99.90;;;;;;5065893;28;20466;-78
2022/06/10 14:24:18;;;;;;;2.00;1.80;;;22.30;99.90;;;;;;5076855;28;20513;-77
2022/06/10 14:27:22;;;;;;;3.73;2.50;;;22.20;99.90;;;;;;5068355;28;20473;-77
2022/06/10 14:30:16;;;;;;;2.73;2.10;;;22.20;99.90;;;;;;5075444;28;20454;-78
2022/06/10 14:33:17;;;;;;;2.53;2.10;;;22.20;99.90;;;;;;5076348;28;20587;-78
2022/06/10 14:36:14;;;;;;;3.80;2.67;;;22.20;99.90;;;;;;5070572;28;20445;-80
2022/06/10 14:39:14;;;;;;;3.60;2.53;;;22.00;99.90;;;;;;5060208;28;20476;-78
2022/06/10 14:42:05;;;;;;;3.13;2.93;;;22.10;99.90;;;;;;5067127;28;20531;-78
2022/06/10 14:44:59;;;;;;;3.90;3.37;;;22.10;99.90;;;;;;5066407;28;20477;-78
2022/06/10 14:48:06;;;;;;;4.67;3.50;;;22.10;99.90;;;;;;5062663;28;20468;-78
2022/06/10 14:51:16;;;;;;;2.87;2.77;;;22.10;99.90;;;;;;5076607;28;20503;-78
2022/06/10 14:54:15;;;;;;;3.70;3.40;;;22.00;99.90;;;;;;5061807;28;20480;-78
2022/06/10 14:57:12;;;;;;;3.50;3.20;;;21.90;99.90;;;;;;5073120;28;20465;-77
2022/06/10 15:00:08;;;;;;;3.80;3.50;;;21.90;99.90;;;;;;5073760;28;20540;-78
2022/06/10 15:02:57;;;;;;;5.00;3.87;;;21.90;99.90;;;;;;5075410;28;20539;-77
2022/06/10 15:09:01;;;;;;;4.30;3.90;;;22.00;99.90;;;;;;5079118;28;20554;-78
2022/06/10 15:11:51;;;;;;;4.10;3.63;;;22.00;99.90;;;;;;5075205;28;20490;-79
2022/06/10 15:14:39;;;;;;;4.20;3.90;;;22.00;99.90;;;;;;5074666;28;21043;-79
2022/06/10 15:17:31;;;;;;;4.50;4.13;;;21.90;99.90;;;;;;5078135;28;20587;-78
2022/06/10 15:20:20;;;;;;;4.23;3.83;;;21.80;99.90;;;;;;5073135;28;20545;-78
2022/06/10 15:23:12;;;;;;;3.80;3.50;;;21.80;99.90;;;;;;5071609;28;20555;-78
2022/06/10 15:26:00;;;;;;;4.37;3.93;;;21.80;99.90;;;;;;5078790;28;20453;-78
2022/06/10 15:28:48;;;;;;;4.20;3.90;;;21.80;99.90;;;;;;5076786;28;20570;-80
2022/06/10 15:31:41;;;;;;;4.10;3.80;;;21.90;99.90;;;;;;5070379;28;20465;-77
2022/06/10 15:40:42;;;;;;;4.40;3.80;;;22.00;99.90;;;;;;5070614;28;20473;-79
2022/06/10 15:41:00;;;;;;;3.93;3.60;;;22.20;99.90;;;;;;5019929;28;20488;-77
2022/06/10 15:43:49;;;;;;;4.50;4.20;;;22.30;99.90;;;;;;5074816;28;20496;-77
2022/06/10 15:46:38;;;;;;;4.10;3.80;;;22.30;99.90;;;;;;5089972;28;20480;-77
2022/06/10 15:49:31;;;;;;;4.07;3.80;;;22.30;99.90;;;;;;5078338;28;20479;-78